sensor_id;sensor_type;location;lat;lon;timestamp;pressure;altitude;pressure_sealevel;temperature;humidity
41513;BME280;27244;59.940;30.280;2023-02-18T00:01:10;99996.53;;;23.10;25.48
41513;BME280;27244;59.940;30.280;2023-02-18T00:03:37;99978.47;;;22.98;25.76
41513;BME280;27244;59.940;30.280;2023-02-18T00:06:13;99976.84;;;23.10;25.50
41513;BME280;27244;59.940;30.280;2023-02-18T00:08:41;99977.09;;;23.02;25.20
41513;BME280;27244;59.940;30.280;2023-02-18T00:11:08;99961.47;;;23.01;25.41
41513;BME280;27244;59.940;30.280;2023-02-18T00:13:36;99956.44;;;22.96;25.42
41513;BME280;27244;59.940;30.280;2023-02-18T00:16:08;99960.22;;;23.02;25.16
41513;BME280;27244;59.940;30.280;2023-02-18T00:18:37;99955.81;;;23.01;25.22
41513;BME280;27244;59.940;30.280;2023-02-18T00:21:05;99954.59;;;23.02;24.03
41513;BME280;27244;59.940;30.280;2023-02-18T00:23:33;99944.25;;;22.99;24.91
41513;BME280;27244;59.940;30.280;2023-02-18T00:26:02;99938.44;;;22.94;24.92
41513;BME280;27244;59.940;30.280;2023-02-18T00:28:31;99935.81;;;22.99;24.57
41513;BME280;27244;59.940;30.280;2023-02-18T00:30:59;99932.66;;;22.97;24.52
41513;BME280;27244;59.940;30.280;2023-02-18T00:33:25;99929.88;;;22.97;24.48
41513;BME280;27244;59.940;30.280;2023-02-18T00:36:00;99923.66;;;23.02;24.57
41513;BME280;27244;59.940;30.280;2023-02-18T00:38:27;99914.25;;;22.96;24.39
41513;BME280;27244;59.940;30.280;2023-02-18T00:40:54;99915.47;;;22.95;24.35
41513;BME280;27244;59.940;30.280;2023-02-18T00:43:21;99911.56;;;22.93;24.05
41513;BME280;27244;59.940;30.280;2023-02-18T00:45:48;99905.94;;;22.93;24.42
41513;BME280;27244;59.940;30.280;2023-02-18T00:48:15;99891.09;;;22.92;24.15
41513;BME280;27244;59.940;30.280;2023-02-18T00:50:42;99893.91;;;22.92;24.18
41513;BME280;27244;59.940;30.280;2023-02-18T00:53:11;99885.00;;;22.94;24.09
41513;BME280;27244;59.940;30.280;2023-02-18T00:55:39;99879.50;;;22.90;24.10
41513;BME280;27244;59.940;30.280;2023-02-18T00:58:06;99878.72;;;22.90;24.08
41513;BME280;27244;59.940;30.280;2023-02-18T01:00:33;99882.00;;;22.88;24.16
41513;BME280;27244;59.940;30.280;2023-02-18T01:03:00;99864.34;;;22.88;23.66
41513;BME280;27244;59.940;30.280;2023-02-18T01:05:27;99861.53;;;22.88;24.10
41513;BME280;27244;59.940;30.280;2023-02-18T01:07:54;99849.19;;;22.85;23.92
41513;BME280;27244;59.940;30.280;2023-02-18T01:10:22;99851.06;;;22.88;23.83
41513;BME280;27244;59.940;30.280;2023-02-18T01:12:49;99830.28;;;22.86;23.86
41513;BME280;27244;59.940;30.280;2023-02-18T01:15:17;99828.38;;;22.83;24.02
41513;BME280;27244;59.940;30.280;2023-02-18T01:17:44;99821.84;;;22.86;23.65
41513;BME280;27244;59.940;30.280;2023-02-18T01:20:12;99826.69;;;22.85;23.79
41513;BME280;27244;59.940;30.280;2023-02-18T01:22:40;99819.50;;;22.84;23.87
41513;BME280;27244;59.940;30.280;2023-02-18T01:25:08;99825.91;;;22.85;23.67
41513;BME280;27244;59.940;30.280;2023-02-18T01:27:37;99804.97;;;22.86;23.62
41513;BME280;27244;59.940;30.280;2023-02-18T01:30:05;99801.81;;;22.84;23.71
41513;BME280;27244;59.940;30.280;2023-02-18T01:32:34;99791.06;;;22.82;23.51
41513;BME280;27244;59.940;30.280;2023-02-18T01:35:02;99773.19;;;22.76;23.59
41513;BME280;27244;59.940;30.280;2023-02-18T01:37:29;99785.44;;;22.82;23.56
41513;BME280;27244;59.940;30.280;2023-02-18T01:39:56;99770.59;;;22.82;23.22
41513;BME280;27244;59.940;30.280;2023-02-18T01:42:26;99779.47;;;22.80;23.43
41513;BME280;27244;59.940;30.280;2023-02-18T01:47:56;99757.75;;;22.81;23.22
41513;BME280;27244;59.940;30.280;2023-02-18T01:50:23;99765.91;;;22.79;23.42
41513;BME280;27244;59.940;30.280;2023-02-18T01:52:50;99748.25;;;22.78;23.36
41513;BME280;27244;59.940;30.280;2023-02-18T01:55:17;99740.25;;;22.77;23.37
41513;BME280;27244;59.940;30.280;2023-02-18T01:57:44;99741.50;;;22.76;23.38
41513;BME280;27244;59.940;30.280;2023-02-18T02:00:14;99725.88;;;22.75;23.08
41513;BME280;27244;59.940;30.280;2023-02-18T02:02:46;99725.09;;;22.74;23.39
41513;BME280;27244;59.940;30.280;2023-02-18T02:05:15;99724.16;;;22.77;23.24
41513;BME280;27244;59.940;30.280;2023-02-18T02:07:43;99699.41;;;22.63;23.33
41513;BME280;27244;59.940;30.280;2023-02-18T02:10:12;99710.25;;;22.74;23.25
41513;BME280;27244;59.940;30.280;2023-02-18T02:12:51;99706.38;;;22.80;23.28
41513;BME280;27244;59.940;30.280;2023-02-18T02:15:29;99701.97;;;22.79;23.35
41513;BME280;27244;59.940;30.280;2023-02-18T02:18:15;99681.06;;;22.80;23.15
41513;BME280;27244;59.940;30.280;2023-02-18T02:27:09;99660.44;;;22.83;23.10
41513;BME280;27244;59.940;30.280;2023-02-18T02:30:11;99663.25;;;22.83;23.17
41513;BME280;27244;59.940;30.280;2023-02-18T02:32:58;99644.50;;;22.80;23.15
41513;BME280;27244;59.940;30.280;2023-02-18T02:35:36;99626.31;;;22.63;22.77
41513;BME280;27244;59.940;30.280;2023-02-18T02:38:10;99643.22;;;22.72;22.94
41513;BME280;27244;59.940;30.280;2023-02-18T02:40:45;99619.19;;;22.71;22.80
41513;BME280;27244;59.940;30.280;2023-02-18T02:43:20;99621.69;;;22.69;22.60
41513;BME280;27244;59.940;30.280;2023-02-18T02:45:57;99623.81;;;22.65;22.57
41513;BME280;27244;59.940;30.280;2023-02-18T02:48:34;99626.38;;;22.72;22.99
41513;BME280;27244;59.940;30.280;2023-02-18T02:51:09;99612.31;;;22.72;22.87
41513;BME280;27244;59.940;30.280;2023-02-18T02:53:40;99616.06;;;22.69;22.81
41513;BME280;27244;59.940;30.280;2023-02-18T02:56:12;99598.41;;;22.69;22.86
41513;BME280;27244;59.940;30.280;2023-02-18T02:58:39;99587.75;;;22.64;22.82
41513;BME280;27244;59.940;30.280;2023-02-18T03:01:18;99589.50;;;22.70;23.00
41513;BME280;27244;59.940;30.280;2023-02-18T03:04:05;99572.50;;;22.74;22.96
41513;BME280;27244;59.940;30.280;2023-02-18T03:09:37;99551.19;;;22.54;22.81
41513;BME280;27244;59.940;30.280;2023-02-18T03:12:17;99556.72;;;22.67;22.84
41513;BME280;27244;59.940;30.280;2023-02-18T03:14:53;99555.91;;;22.67;22.80
41513;BME280;27244;59.940;30.280;2023-02-18T03:17:25;99547.63;;;22.63;22.82
41513;BME280;27244;59.940;30.280;2023-02-18T03:19:57;99539.94;;;22.54;22.71
41513;BME280;27244;59.940;30.280;2023-02-18T03:22:30;99540.44;;;22.62;22.63
41513;BME280;27244;59.940;30.280;2023-02-18T03:25:00;99533.88;;;22.56;22.64
41513;BME280;27244;59.940;30.280;2023-02-18T03:27:31;99539.00;;;22.57;22.85
41513;BME280;27244;59.940;30.280;2023-02-18T03:30:03;99534.50;;;22.60;22.76
41513;BME280;27244;59.940;30.280;2023-02-18T03:32:33;99537.13;;;22.54;22.80
41513;BME280;27244;59.940;30.280;2023-02-18T03:35:05;99534.50;;;22.60;22.51
41513;BME280;27244;59.940;30.280;2023-02-18T03:37:38;99537.63;;;22.62;22.31
41513;BME280;27244;59.940;30.280;2023-02-18T03:40:07;99543.38;;;22.58;22.58
41513;BME280;27244;59.940;30.280;2023-02-18T03:42:36;99540.28;;;22.56;22.51
41513;BME280;27244;59.940;30.280;2023-02-18T03:45:05;99545.09;;;22.56;22.53
41513;BME280;27244;59.940;30.280;2023-02-18T03:47:32;99535.25;;;22.51;22.69
41513;BME280;27244;59.940;30.280;2023-02-18T03:50:00;99540.41;;;22.53;22.68
41513;BME280;27244;59.940;30.280;2023-02-18T03:52:27;99530.13;;;22.50;22.63
41513;BME280;27244;59.940;30.280;2023-02-18T03:54:55;99547.91;;;22.56;22.43
41513;BME280;27244;59.940;30.280;2023-02-18T03:57:22;99535.59;;;22.53;22.47
41513;BME280;27244;59.940;30.280;2023-02-18T03:59:49;99525.09;;;22.54;22.50
41513;BME280;27244;59.940;30.280;2023-02-18T04:02:16;99522.78;;;22.52;22.24
41513;BME280;27244;59.940;30.280;2023-02-18T04:04:43;99514.00;;;22.50;22.43
41513;BME280;27244;59.940;30.280;2023-02-18T04:07:10;99517.94;;;22.53;22.62
41513;BME280;27244;59.940;30.280;2023-02-18T04:09:37;99516.38;;;22.52;22.56
41513;BME280;27244;59.940;30.280;2023-02-18T04:12:05;99497.47;;;22.52;22.47
41513;BME280;27244;59.940;30.280;2023-02-18T04:14:32;99496.69;;;22.52;22.30
41513;BME280;27244;59.940;30.280;2023-02-18T04:16:59;99493.59;;;22.50;22.27
41513;BME280;27244;59.940;30.280;2023-02-18T04:19:26;99497.31;;;22.47;22.21
41513;BME280;27244;59.940;30.280;2023-02-18T04:21:53;99494.34;;;22.50;22.23
41513;BME280;27244;59.940;30.280;2023-02-18T04:24:20;99504.34;;;22.51;22.10
41513;BME280;27244;59.940;30.280;2023-02-18T04:26:47;99496.41;;;22.50;22.23
41513;BME280;27244;59.940;30.280;2023-02-18T04:29:16;99486.69;;;22.51;22.43
41513;BME280;27244;59.940;30.280;2023-02-18T04:31:43;99490.00;;;22.49;22.33
41513;BME280;27244;59.940;30.280;2023-02-18T04:34:10;99487.97;;;22.50;22.00
41513;BME280;27244;59.940;30.280;2023-02-18T04:36:36;99478.41;;;22.47;22.29
41513;BME280;27244;59.940;30.280;2023-02-18T04:39:04;99471.56;;;22.48;22.08
41513;BME280;27244;59.940;30.280;2023-02-18T04:41:30;99469.53;;;22.49;21.99
41513;BME280;27244;59.940;30.280;2023-02-18T04:43:57;99471.56;;;22.48;22.19
41513;BME280;27244;59.940;30.280;2023-02-18T04:46:26;99480.44;;;22.47;21.96
41513;BME280;27244;59.940;30.280;2023-02-18T04:48:53;99468.41;;;22.46;22.11
41513;BME280;27244;59.940;30.280;2023-02-18T04:51:20;99474.81;;;22.47;22.15
41513;BME280;27244;59.940;30.280;2023-02-18T04:53:47;99463.56;;;22.47;22.00
41513;BME280;27244;59.940;30.280;2023-02-18T04:56:14;99470.78;;;22.48;22.05
41513;BME280;27244;59.940;30.280;2023-02-18T04:58:41;99453.59;;;22.46;21.97
41513;BME280;27244;59.940;30.280;2023-02-18T05:01:09;99453.59;;;22.46;22.19
41513;BME280;27244;59.940;30.280;2023-02-18T05:03:37;99457.16;;;22.46;22.18
41513;BME280;27244;59.940;30.280;2023-02-18T05:06:05;99446.41;;;22.45;22.04
41513;BME280;27244;59.940;30.280;2023-02-18T05:08:32;99447.19;;;22.45;22.16
41513;BME280;27244;59.940;30.280;2023-02-18T05:10:59;99437.66;;;22.43;22.04
41513;BME280;27244;59.940;30.280;2023-02-18T05:13:26;99444.53;;;22.42;22.01
41513;BME280;27244;59.940;30.280;2023-02-18T05:15:53;99416.91;;;22.31;21.95
41513;BME280;27244;59.940;30.280;2023-02-18T05:18:20;99437.66;;;22.43;22.04
41513;BME280;27244;59.940;30.280;2023-02-18T05:20:48;99435.19;;;22.45;22.20
41513;BME280;27244;59.940;30.280;2023-02-18T05:23:15;99440.47;;;22.43;21.85
41513;BME280;27244;59.940;30.280;2023-02-18T05:25:44;99440.47;;;22.43;21.98
41513;BME280;27244;59.940;30.280;2023-02-18T05:28:11;99436.91;;;22.42;22.05
41513;BME280;27244;59.940;30.280;2023-02-18T05:30:38;99417.69;;;22.41;22.15
41513;BME280;27244;59.940;30.280;2023-02-18T05:33:05;99424.53;;;22.40;21.87
41513;BME280;27244;59.940;30.280;2023-02-18T05:35:32;99435.34;;;22.41;22.02
41513;BME280;27244;59.940;30.280;2023-02-18T05:38:01;99416.75;;;22.35;22.07
41513;BME280;27244;59.940;30.280;2023-02-18T05:40:28;99418.94;;;22.40;22.12
41513;BME280;27244;59.940;30.280;2023-02-18T05:42:55;99420.50;;;22.41;22.26
41513;BME280;27244;59.940;30.280;2023-02-18T05:45:22;99411.75;;;22.39;22.14
41513;BME280;27244;59.940;30.280;2023-02-18T05:47:49;99411.75;;;22.39;22.02
41513;BME280;27244;59.940;30.280;2023-02-18T05:50:16;99404.56;;;22.38;22.13
41513;BME280;27244;59.940;30.280;2023-02-18T05:52:43;99399.09;;;22.34;22.07
41513;BME280;27244;59.940;30.280;2023-02-18T05:55:11;99384.28;;;22.34;22.14
41513;BME280;27244;59.940;30.280;2023-02-18T05:57:38;99387.72;;;22.38;22.13
41513;BME280;27244;59.940;30.280;2023-02-18T06:00:06;99381.78;;;22.36;22.15
41513;BME280;27244;59.940;30.280;2023-02-18T06:02:34;99377.56;;;22.40;21.88
41513;BME280;27244;59.940;30.280;2023-02-18T06:05:01;99374.78;;;22.31;22.22
41513;BME280;27244;59.940;30.280;2023-02-18T06:07:28;99387.06;;;22.43;22.29
41513;BME280;27244;59.940;30.280;2023-02-18T06:09:56;99369.91;;;22.41;22.06
41513;BME280;27244;59.940;30.280;2023-02-18T06:12:24;99388.03;;;22.49;22.34
41513;BME280;27244;59.940;30.280;2023-02-18T06:14:51;99384.13;;;22.46;22.43
41513;BME280;27244;59.940;30.280;2023-02-18T06:17:18;99380.69;;;22.51;22.75
41513;BME280;27244;59.940;30.280;2023-02-18T06:19:47;99372.59;;;22.53;22.68
41513;BME280;27244;59.940;30.280;2023-02-18T06:22:15;99383.19;;;22.49;22.61
41513;BME280;27244;59.940;30.280;2023-02-18T06:24:43;99364.47;;;22.55;22.71
41513;BME280;27244;59.940;30.280;2023-02-18T06:27:10;99374.75;;;22.58;22.87
41513;BME280;27244;59.940;30.280;2023-02-18T06:29:38;99370.69;;;22.60;23.12
41513;BME280;27244;59.940;30.280;2023-02-18T06:32:05;99355.06;;;22.58;23.16
41513;BME280;27244;59.940;30.280;2023-02-18T06:34:32;99361.63;;;22.65;23.11
41513;BME280;27244;59.940;30.280;2023-02-18T06:36:59;99353.19;;;22.65;23.19
41513;BME280;27244;59.940;30.280;2023-02-18T06:39:26;99350.53;;;22.61;23.30
41513;BME280;27244;59.940;30.280;2023-02-18T06:41:53;99361.94;;;22.57;23.51
41513;BME280;27244;59.940;30.280;2023-02-18T06:44:23;99357.13;;;22.67;23.61
41513;BME280;27244;59.940;30.280;2023-02-18T06:46:51;99352.72;;;22.66;23.68
41513;BME280;27244;59.940;30.280;2023-02-18T06:49:18;99341.50;;;22.66;23.65
41513;BME280;27244;59.940;30.280;2023-02-18T06:51:45;99351.53;;;22.67;23.83
41513;BME280;27244;59.940;30.280;2023-02-18T06:54:24;99331.84;;;22.67;23.84
41513;BME280;27244;59.940;30.280;2023-02-18T06:56:54;99348.53;;;22.71;24.14
41513;BME280;27244;59.940;30.280;2023-02-18T06:59:21;99341.50;;;22.66;24.17
41513;BME280;27244;59.940;30.280;2023-02-18T07:01:48;99344.50;;;22.72;24.18
41513;BME280;27244;59.940;30.280;2023-02-18T07:04:17;99351.50;;;22.76;24.17
41513;BME280;27244;59.940;30.280;2023-02-18T07:06:43;99343.53;;;22.75;24.28
41513;BME280;27244;59.940;30.280;2023-02-18T07:09:10;99337.13;;;22.74;24.49
41513;BME280;27244;59.940;30.280;2023-02-18T07:11:37;99348.22;;;22.78;24.39
41513;BME280;27244;59.940;30.280;2023-02-18T07:14:04;99355.88;;;22.77;24.40
41513;BME280;27244;59.940;30.280;2023-02-18T07:16:31;99336.50;;;22.79;24.41
41513;BME280;27244;59.940;30.280;2023-02-18T07:19:04;99334.00;;;22.81;24.40
41513;BME280;27244;59.940;30.280;2023-02-18T07:21:51;99304.94;;;22.66;24.30
41513;BME280;27244;59.940;30.280;2023-02-18T07:24:26;99337.88;;;22.84;24.71
41513;BME280;27244;59.940;30.280;2023-02-18T07:26:57;99335.69;;;22.88;24.68
41513;BME280;27244;59.940;30.280;2023-02-18T07:29:24;99329.91;;;23.00;24.27
41513;BME280;27244;59.940;30.280;2023-02-18T07:31:51;99323.84;;;22.84;24.78
41513;BME280;27244;59.940;30.280;2023-02-18T07:34:19;99314.47;;;22.78;24.76
41513;BME280;27244;59.940;30.280;2023-02-18T07:36:45;99325.06;;;22.83;24.98
41513;BME280;27244;59.940;30.280;2023-02-18T07:39:14;99325.69;;;22.87;25.03
41513;BME280;27244;59.940;30.280;2023-02-18T07:41:45;99320.56;;;22.85;25.01
41513;BME280;27244;59.940;30.280;2023-02-18T07:44:14;99308.38;;;22.79;25.16
41513;BME280;27244;59.940;30.280;2023-02-18T07:46:41;99318.03;;;22.87;25.18
41513;BME280;27244;59.940;30.280;2023-02-18T07:49:08;99317.25;;;22.87;25.29
41513;BME280;27244;59.940;30.280;2023-02-18T07:51:35;99318.38;;;22.89;25.29
41513;BME280;27244;59.940;30.280;2023-02-18T07:54:04;99321.94;;;22.90;25.53
41513;BME280;27244;59.940;30.280;2023-02-18T07:56:33;99305.22;;;22.86;25.47
41513;BME280;27244;59.940;30.280;2023-02-18T07:59:00;99309.94;;;22.89;25.57
41513;BME280;27244;59.940;30.280;2023-02-18T08:01:27;99318.03;;;22.96;25.57
41513;BME280;27244;59.940;30.280;2023-02-18T08:03:54;99307.25;;;22.95;25.59
41513;BME280;27244;59.940;30.280;2023-02-18T08:06:24;99301.63;;;22.95;25.64
41513;BME280;27244;59.940;30.280;2023-02-18T08:08:52;99311.13;;;22.97;25.37
41513;BME280;27244;59.940;30.280;2023-02-18T08:11:19;99322.69;;;22.99;25.61
41513;BME280;27244;59.940;30.280;2023-02-18T08:13:48;99318.16;;;23.02;25.62
41513;BME280;27244;59.940;30.280;2023-02-18T08:16:15;99306.28;;;22.98;25.81
41513;BME280;27244;59.940;30.280;2023-02-18T08:18:43;99321.13;;;22.98;25.63
41513;BME280;27244;59.940;30.280;2023-02-18T08:21:10;99315.84;;;23.00;25.87
41513;BME280;27244;59.940;30.280;2023-02-18T08:23:37;99317.88;;;23.00;25.96
41513;BME280;27244;59.940;30.280;2023-02-18T08:26:04;99309.88;;;22.98;25.96
41513;BME280;27244;59.940;30.280;2023-02-18T08:28:40;99327.84;;;23.01;26.00
41513;BME280;27244;59.940;30.280;2023-02-18T08:31:15;99304.59;;;23.00;26.09
41513;BME280;27244;59.940;30.280;2023-02-18T08:33:42;99308.16;;;23.01;26.26
41513;BME280;27244;59.940;30.280;2023-02-18T08:36:09;99301.78;;;23.00;26.37
41513;BME280;27244;59.940;30.280;2023-02-18T08:38:36;99299.72;;;23.01;26.42
41513;BME280;27244;59.940;30.280;2023-02-18T08:41:05;99313.03;;;23.00;26.37
41513;BME280;27244;59.940;30.280;2023-02-18T08:43:33;99305.34;;;23.01;26.42
41513;BME280;27244;59.940;30.280;2023-02-18T08:46:01;99293.00;;;22.98;26.51
41513;BME280;27244;59.940;30.280;2023-02-18T08:48:29;99291.88;;;23.05;26.73
41513;BME280;27244;59.940;30.280;2023-02-18T08:50:56;99298.00;;;23.03;26.62
41513;BME280;27244;59.940;30.280;2023-02-18T08:53:24;99301.13;;;23.05;26.79
41513;BME280;27244;59.940;30.280;2023-02-18T08:55:51;99291.59;;;23.03;26.76
41513;BME280;27244;59.940;30.280;2023-02-18T08:58:18;99289.09;;;23.05;26.99
41513;BME280;27244;59.940;30.280;2023-02-18T09:00:45;99300.31;;;23.05;27.13
41513;BME280;27244;59.940;30.280;2023-02-18T09:03:12;99285.03;;;23.06;27.20
41513;BME280;27244;59.940;30.280;2023-02-18T09:05:41;99283.47;;;23.05;27.10
41513;BME280;27244;59.940;30.280;2023-02-18T09:08:08;99285.03;;;23.06;27.34
41513;BME280;27244;59.940;30.280;2023-02-18T09:10:35;99282.22;;;23.06;27.33
41513;BME280;27244;59.940;30.280;2023-02-18T09:13:05;99279.69;;;23.08;27.39
41513;BME280;27244;59.940;30.280;2023-02-18T09:15:32;99271.59;;;23.01;27.29
41513;BME280;27244;59.940;30.280;2023-02-18T09:17:59;99274.91;;;22.99;27.43
41513;BME280;27244;59.940;30.280;2023-02-18T09:20:26;99284.56;;;23.08;27.46
41513;BME280;27244;59.940;30.280;2023-02-18T09:22:55;99288.91;;;23.09;27.56
41513;BME280;27244;59.940;30.280;2023-02-18T09:25:22;99278.44;;;23.09;27.57
41513;BME280;27244;59.940;30.280;2023-02-18T09:27:49;99271.06;;;23.12;27.40
41513;BME280;27244;59.940;30.280;2023-02-18T09:30:16;99268.25;;;23.12;27.58
41513;BME280;27244;59.940;30.280;2023-02-18T09:32:43;99283.59;;;23.11;28.07
41513;BME280;27244;59.940;30.280;2023-02-18T09:35:10;99272.66;;;23.13;28.01
41513;BME280;27244;59.940;30.280;2023-02-18T09:37:37;99281.09;;;23.13;27.99
41513;BME280;27244;59.940;30.280;2023-02-18T09:40:09;99279.06;;;23.13;27.90
41513;BME280;27244;59.940;30.280;2023-02-18T09:42:46;99283.91;;;23.13;28.13
41513;BME280;27244;59.940;30.280;2023-02-18T09:45:14;99275.78;;;23.15;27.94
41513;BME280;27244;59.940;30.280;2023-02-18T09:47:42;99276.53;;;23.15;28.09
41513;BME280;27244;59.940;30.280;2023-02-18T09:50:17;99274.81;;;23.18;27.75
41513;BME280;27244;59.940;30.280;2023-02-18T09:52:45;99266.22;;;23.12;27.96
41513;BME280;27244;59.940;30.280;2023-02-18T09:55:20;99262.78;;;23.17;28.08
41513;BME280;27244;59.940;30.280;2023-02-18T09:57:54;99270.75;;;23.19;28.17
41513;BME280;27244;59.940;30.280;2023-02-18T10:00:25;99269.47;;;23.20;28.50
41513;BME280;27244;59.940;30.280;2023-02-18T10:02:57;99264.03;;;23.16;28.32
41513;BME280;27244;59.940;30.280;2023-02-18T10:05:26;99240.63;;;23.10;28.63
41513;BME280;27244;59.940;30.280;2023-02-18T10:07:57;99251.09;;;23.10;28.75
41513;BME280;27244;59.940;30.280;2023-02-18T10:10:34;99250.13;;;23.13;28.44
41513;BME280;27244;59.940;30.280;2023-02-18T10:13:03;99245.81;;;23.02;29.36
41513;BME280;27244;59.940;30.280;2023-02-18T10:15:31;99240.19;;;23.02;29.86
41513;BME280;27244;59.940;30.280;2023-02-18T10:17:59;99240.66;;;23.01;29.36
41513;BME280;27244;59.940;30.280;2023-02-18T10:20:28;99245.53;;;23.00;29.81
41513;BME280;27244;59.940;30.280;2023-02-18T10:22:57;99236.59;;;23.02;29.34
41513;BME280;27244;59.940;30.280;2023-02-18T10:25:28;99238.34;;;22.99;29.66
41513;BME280;27244;59.940;30.280;2023-02-18T10:27:57;99231.63;;;22.97;30.09
41513;BME280;27244;59.940;30.280;2023-02-18T10:30:30;99224.63;;;22.92;29.92
41513;BME280;27244;59.940;30.280;2023-02-18T10:33:04;99231.63;;;22.97;29.94
41513;BME280;27244;59.940;30.280;2023-02-18T10:35:41;99226.47;;;22.95;29.57
41513;BME280;27244;59.940;30.280;2023-02-18T10:38:14;99238.50;;;22.96;29.38
41513;BME280;27244;59.940;30.280;2023-02-18T10:40:53;99224.75;;;22.98;29.34
41513;BME280;27244;59.940;30.280;2023-02-18T10:43:30;99225.53;;;22.98;29.74
41513;BME280;27244;59.940;30.280;2023-02-18T10:46:06;99226.47;;;22.95;30.08
41513;BME280;27244;59.940;30.280;2023-02-18T10:48:53;99211.47;;;22.98;29.57
41513;BME280;27244;59.940;30.280;2023-02-18T10:51:30;99208.22;;;22.91;29.79
41513;BME280;27244;59.940;30.280;2023-02-18T10:53:59;99220.53;;;22.93;30.19
41513;BME280;27244;59.940;30.280;2023-02-18T10:56:39;99212.25;;;22.99;30.01
41513;BME280;27244;59.940;30.280;2023-02-18T10:59:13;99206.19;;;22.91;29.81
41513;BME280;27244;59.940;30.280;2023-02-18T11:01:42;99219.78;;;22.93;30.35
41513;BME280;27244;59.940;30.280;2023-02-18T11:04:15;99215.69;;;22.94;30.03
41513;BME280;27244;59.940;30.280;2023-02-18T11:06:45;99211.81;;;22.91;30.37
41513;BME280;27244;59.940;30.280;2023-02-18T11:09:25;99221.81;;;22.92;29.92
41513;BME280;27244;59.940;30.280;2023-02-18T11:12:00;99207.56;;;22.96;29.61
41513;BME280;27244;59.940;30.280;2023-02-18T11:14:39;99206.00;;;22.95;29.43
41513;BME280;27244;59.940;30.280;2023-02-18T11:17:15;99204.28;;;22.97;29.42
41513;BME280;27244;59.940;30.280;2023-02-18T11:19:42;99198.03;;;22.93;29.43
41513;BME280;27244;59.940;30.280;2023-02-18T11:22:19;99198.34;;;22.95;29.41
41513;BME280;27244;59.940;30.280;2023-02-18T11:24:47;99204.44;;;22.94;29.41
41513;BME280;27244;59.940;30.280;2023-02-18T11:27:22;99194.31;;;22.96;29.46
41513;BME280;27244;59.940;30.280;2023-02-18T11:29:51;99201.16;;;22.95;29.50
41513;BME280;27244;59.940;30.280;2023-02-18T11:32:20;99196.34;;;22.96;29.32
41513;BME280;27244;59.940;30.280;2023-02-18T11:34:48;99184.47;;;22.92;29.39
41513;BME280;27244;59.940;30.280;2023-02-18T11:37:18;99193.41;;;23.14;28.84
41513;BME280;27244;59.940;30.280;2023-02-18T11:39:49;99196.16;;;22.99;29.23
41513;BME280;27244;59.940;30.280;2023-02-18T11:42:26;99189.56;;;23.02;29.16
41513;BME280;27244;59.940;30.280;2023-02-18T11:44:55;99191.78;;;22.98;29.42
41513;BME280;27244;59.940;30.280;2023-02-18T11:47:25;99199.94;;;22.96;29.34
41513;BME280;27244;59.940;30.280;2023-02-18T11:50:02;99187.22;;;23.01;29.34
41513;BME280;27244;59.940;30.280;2023-02-18T11:52:33;99186.94;;;22.99;29.20
41513;BME280;27244;59.940;30.280;2023-02-18T11:55:05;99183.84;;;22.97;29.49
41513;BME280;27244;59.940;30.280;2023-02-18T11:57:34;99177.31;;;23.15;28.90
41513;BME280;27244;59.940;30.280;2023-02-18T12:00:04;99158.66;;;22.93;29.20
41513;BME280;27244;59.940;30.280;2023-02-18T12:02:36;99169.28;;;22.98;29.23
41513;BME280;27244;59.940;30.280;2023-02-18T12:05:11;99162.41;;;22.99;29.15
41513;BME280;27244;59.940;30.280;2023-02-18T12:07:43;99172.09;;;22.98;29.18
41513;BME280;27244;59.940;30.280;2023-02-18T12:10:14;99176.94;;;22.98;29.24
41513;BME280;27244;59.940;30.280;2023-02-18T12:12:50;99173.94;;;23.01;29.25
41513;BME280;27244;59.940;30.280;2023-02-18T12:15:25;99172.41;;;23.00;29.39
41513;BME280;27244;59.940;30.280;2023-02-18T12:20:55;99152.72;;;23.00;29.22
41513;BME280;27244;59.940;30.280;2023-02-18T12:23:33;99152.41;;;22.98;29.15
41513;BME280;27244;59.940;30.280;2023-02-18T12:26:14;99155.81;;;23.02;29.22
41513;BME280;27244;59.940;30.280;2023-02-18T12:29:03;99160.81;;;23.08;29.12
41513;BME280;27244;59.940;30.280;2023-02-18T12:31:43;99159.25;;;23.07;29.19
41513;BME280;27244;59.940;30.280;2023-02-18T12:34:28;99156.44;;;23.07;29.12
41513;BME280;27244;59.940;30.280;2023-02-18T12:37:09;99164.09;;;23.06;29.18
41513;BME280;27244;59.940;30.280;2023-02-18T12:39:56;99163.63;;;23.08;29.32
41513;BME280;27244;59.940;30.280;2023-02-18T12:42:39;99158.75;;;23.08;29.15
41513;BME280;27244;59.940;30.280;2023-02-18T12:45:29;99152.38;;;23.08;29.05
41513;BME280;27244;59.940;30.280;2023-02-18T12:48:28;99126.50;;;22.94;29.11
41513;BME280;27244;59.940;30.280;2023-02-18T12:51:20;99150.91;;;23.12;29.10
41513;BME280;27244;59.940;30.280;2023-02-18T12:54:18;99166.25;;;23.11;29.20
41513;BME280;27244;59.940;30.280;2023-02-18T12:57:09;99163.91;;;23.10;29.74
41513;BME280;27244;59.940;30.280;2023-02-18T13:02:51;99150.19;;;23.02;29.64
41513;BME280;27244;59.940;30.280;2023-02-18T13:05:30;99152.41;;;22.98;29.41
41513;BME280;27244;59.940;30.280;2023-02-18T13:08:07;99140.88;;;22.96;28.65
41513;BME280;27244;59.940;30.280;2023-02-18T13:11:01;99142.91;;;22.96;28.35
41513;BME280;27244;59.940;30.280;2023-02-18T13:13:41;99135.25;;;22.96;28.07
41513;BME280;27244;59.940;30.280;2023-02-18T13:16:25;99137.63;;;22.89;28.08
41513;BME280;27244;59.940;30.280;2023-02-18T13:19:02;99134.31;;;22.90;28.09
41513;BME280;27244;59.940;30.280;2023-02-18T13:21:34;99143.84;;;22.93;28.03
41513;BME280;27244;59.940;30.280;2023-02-18T13:24:09;99141.47;;;23.00;28.12
41513;BME280;27244;59.940;30.280;2023-02-18T13:26:40;99144.94;;;22.95;28.28